sensor_id;sensor_type;location;lat;lon;timestamp;pressure;altitude;pressure_sealevel;temperature;humidity
7586;BME280;12459;42.646;23.292;2024-01-11T00:01:09;94282.13;;;-5.55;87.28
7586;BME280;12459;42.646;23.292;2024-01-11T00:16:14;94453.47;;;-3.64;84.93
7586;BME280;12459;42.646;23.292;2024-01-11T00:31:15;94402.69;;;-3.91;83.10
7586;BME280;12459;42.646;23.292;2024-01-11T00:46:18;94210.38;;;-5.58;83.10
7586;BME280;12459;42.646;23.292;2024-01-11T01:01:19;94373.00;;;-5.20;87.64
7586;BME280;12459;42.646;23.292;2024-01-11T01:16:21;94297.75;;;-5.36;87.86
7586;BME280;12459;42.646;23.292;2024-01-11T01:31:23;94546.94;;;-3.92;87.75
7586;BME280;12459;42.646;23.292;2024-01-11T01:46:26;94093.19;;;-5.87;84.11
7586;BME280;12459;42.646;23.292;2024-01-11T02:01:30;94485.38;;;-3.35;84.81
7586;BME280;12459;42.646;23.292;2024-01-11T02:16:32;94220.56;;;-4.55;81.87
7586;BME280;12459;42.646;23.292;2024-01-11T02:31:33;94355.38;;;-3.80;82.39
7586;BME280;12459;42.646;23.292;2024-01-11T02:46:35;94347.91;;;-4.28;81.62
7586;BME280;12459;42.646;23.292;2024-01-11T03:01:37;94228.19;;;-4.31;81.44
7586;BME280;12459;42.646;23.292;2024-01-11T03:16:39;94151.22;;;-5.02;80.88
7586;BME280;12459;42.646;23.292;2024-01-11T03:31:41;93989.19;;;-6.02;80.48
7586;BME280;12459;42.646;23.292;2024-01-11T03:46:44;94273.25;;;-4.48;81.16
7586;BME280;12459;42.646;23.292;2024-01-11T04:01:46;93957.59;;;-6.14;80.82
7586;BME280;12459;42.646;23.292;2024-01-11T04:16:48;94295.13;;;-4.03;80.42
7586;BME280;12459;42.646;23.292;2024-01-11T04:31:50;94161.41;;;-5.33;80.69
7586;BME280;12459;42.646;23.292;2024-01-11T04:46:52;94395.28;;;-3.47;79.88
7586;BME280;12459;42.646;23.292;2024-01-11T05:01:54;94030.97;;;-6.21;80.16
7586;BME280;12459;42.646;23.292;2024-01-11T05:16:55;94409.66;;;-3.59;79.37
7586;BME280;12459;42.646;23.292;2024-01-11T05:31:57;94033.59;;;-5.66;79.81
7586;BME280;12459;42.646;23.292;2024-01-11T05:46:59;94326.13;;;-4.10;80.39
7586;BME280;12459;42.646;23.292;2024-01-11T06:02:01;94278.28;;;-4.65;80.94
7586;BME280;12459;42.646;23.292;2024-01-11T06:17:03;94118.00;;;-5.43;80.16
7586;BME280;12459;42.646;23.292;2024-01-11T06:32:05;94431.47;;;-3.13;80.36
7586;BME280;12459;42.646;23.292;2024-01-11T06:47:07;94020.16;;;-5.59;81.71
7586;BME280;12459;42.646;23.292;2024-01-11T07:02:09;94152.91;;;-3.23;77.42
7586;BME280;12459;42.646;23.292;2024-01-11T07:17:11;94124.22;;;-2.88;75.49
7586;BME280;12459;42.646;23.292;2024-01-11T07:32:13;94073.91;;;-3.07;72.83
7586;BME280;12459;42.646;23.292;2024-01-11T07:47:15;94264.72;;;-1.47;73.32
7586;BME280;12459;42.646;23.292;2024-01-11T08:02:16;94008.19;;;-3.28;74.51
7586;BME280;12459;42.646;23.292;2024-01-11T08:17:18;94036.94;;;-2.45;72.86
7586;BME280;12459;42.646;23.292;2024-01-11T08:32:20;94027.53;;;-1.65;72.89
7586;BME280;12459;42.646;23.292;2024-01-11T08:47:35;94018.41;;;-1.59;72.48
7586;BME280;12459;42.646;23.292;2024-01-11T09:02:37;94202.94;;;-0.22;70.76
7586;BME280;12459;42.646;23.292;2024-01-11T09:17:39;94169.81;;;-0.02;70.31
7586;BME280;12459;42.646;23.292;2024-01-11T09:32:41;94077.38;;;-0.30;70.73
7586;BME280;12459;42.646;23.292;2024-01-11T09:47:44;94219.16;;;1.17;70.29
7586;BME280;12459;42.646;23.292;2024-01-11T10:02:50;93848.44;;;-0.96;68.73
7586;BME280;12459;42.646;23.292;2024-01-11T10:17:53;93816.19;;;-0.48;68.35
7586;BME280;12459;42.646;23.292;2024-01-11T10:32:57;94201.00;;;2.13;68.13
7586;BME280;12459;42.646;23.292;2024-01-11T10:48:02;94157.00;;;2.61;65.90
7586;BME280;12459;42.646;23.292;2024-01-11T11:03:07;94010.03;;;2.16;63.17
7586;BME280;12459;42.646;23.292;2024-01-11T11:18:12;93983.91;;;2.94;63.28
7586;BME280;12459;42.646;23.292;2024-01-11T11:33:23;94063.44;;;4.22;62.90
7586;BME280;12459;42.646;23.292;2024-01-11T12:03:36;93956.50;;;3.56;61.99
7586;BME280;12459;42.646;23.292;2024-01-11T12:18:41;93892.53;;;3.15;64.12
7586;BME280;12459;42.646;23.292;2024-01-11T12:33:43;93970.09;;;3.93;65.55
7586;BME280;12459;42.646;23.292;2024-01-11T12:48:46;93881.88;;;3.73;66.48
7586;BME280;12459;42.646;23.292;2024-01-11T13:20:14;93778.53;;;3.28;69.15
7586;BME280;12459;42.646;23.292;2024-01-11T13:35:17;93740.25;;;2.83;70.67
7586;BME280;12459;42.646;23.292;2024-01-11T13:50:18;93679.44;;;2.25;71.28
7586;BME280;12459;42.646;23.292;2024-01-11T14:05:22;93694.81;;;2.19;73.58
7586;BME280;12459;42.646;23.292;2024-01-11T14:20:25;93485.81;;;-0.02;76.59
7586;BME280;12459;42.646;23.292;2024-01-11T14:35:40;93664.00;;;0.62;79.15
7586;BME280;12459;42.646;23.292;2024-01-11T14:50:42;93817.75;;;1.98;80.36
7586;BME280;12459;42.646;23.292;2024-01-11T15:05:44;93608.22;;;0.17;82.05
7586;BME280;12459;42.646;23.292;2024-01-11T15:20:46;93712.81;;;1.00;81.15
7586;BME280;12459;42.646;23.292;2024-01-11T15:35:48;93838.50;;;2.11;79.45
7586;BME280;12459;42.646;23.292;2024-01-11T15:50:52;93831.53;;;2.38;77.68
7586;BME280;12459;42.646;23.292;2024-01-11T16:05:56;93771.56;;;1.91;76.28
7586;BME280;12459;42.646;23.292;2024-01-11T16:20:58;93602.78;;;1.01;76.13
7586;BME280;12459;42.646;23.292;2024-01-11T16:36:00;93733.59;;;1.80;75.89
7586;BME280;12459;42.646;23.292;2024-01-11T16:51:05;93665.78;;;1.69;74.76
7586;BME280;12459;42.646;23.292;2024-01-11T17:06:07;93739.06;;;1.56;77.37
7586;BME280;12459;42.646;23.292;2024-01-11T17:21:09;93603.03;;;0.95;73.39
7586;BME280;12459;42.646;23.292;2024-01-11T17:36:11;93598.09;;;0.62;75.67
7586;BME280;12459;42.646;23.292;2024-01-11T17:51:14;93654.09;;;1.03;75.82
7586;BME280;12459;42.646;23.292;2024-01-11T18:06:16;93595.06;;;1.08;71.67
7586;BME280;12459;42.646;23.292;2024-01-11T18:21:18;93705.63;;;1.79;70.37
7586;BME280;12459;42.646;23.292;2024-01-11T18:36:22;93364.50;;;-0.72;71.34
7586;BME280;12459;42.646;23.292;2024-01-11T18:51:24;93564.41;;;0.40;71.40
7586;BME280;12459;42.646;23.292;2024-01-11T19:06:26;93542.47;;;-0.08;71.40
7586;BME280;12459;42.646;23.292;2024-01-11T19:21:28;93685.94;;;1.26;71.16
7586;BME280;12459;42.646;23.292;2024-01-11T19:36:30;93303.91;;;-1.47;71.54
7586;BME280;12459;42.646;23.292;2024-01-11T19:51:32;93555.44;;;-0.43;72.02
7586;BME280;12459;42.646;23.292;2024-01-11T20:06:34;93498.31;;;-0.42;70.04
7586;BME280;12459;42.646;23.292;2024-01-11T20:21:36;93390.53;;;-1.87;70.49
7586;BME280;12459;42.646;23.292;2024-01-11T20:36:38;93675.00;;;0.37;73.04
7586;BME280;12459;42.646;23.292;2024-01-11T20:51:41;93573.97;;;-1.04;74.49
7586;BME280;12459;42.646;23.292;2024-01-11T21:06:47;93645.69;;;-0.42;72.04
7586;BME280;12459;42.646;23.292;2024-01-11T21:21:49;93336.38;;;-2.65;67.96
7586;BME280;12459;42.646;23.292;2024-01-11T21:36:52;93468.06;;;-1.29;68.96
7586;BME280;12459;42.646;23.292;2024-01-11T21:51:54;93679.91;;;-0.42;68.46
7586;BME280;12459;42.646;23.292;2024-01-11T22:06:56;93627.91;;;-0.33;68.83
7586;BME280;12459;42.646;23.292;2024-01-11T22:21:59;93395.81;;;-2.57;67.71
7586;BME280;12459;42.646;23.292;2024-01-11T22:37:00;93642.63;;;-0.56;66.18
7586;BME280;12459;42.646;23.292;2024-01-11T22:52:02;93412.69;;;-2.21;66.83
7586;BME280;12459;42.646;23.292;2024-01-11T23:07:04;93416.84;;;-2.77;67.89
7586;BME280;12459;42.646;23.292;2024-01-11T23:22:06;93379.13;;;-3.18;69.25
7586;BME280;12459;42.646;23.292;2024-01-11T23:37:08;93093.63;;;-5.16;67.54
7586;BME280;12459;42.646;23.292;2024-01-11T23:52:10;93532.03;;;-2.39;69.66
